createdAt,value
2019-05-02T00:00:14.383Z,26.00
2019-05-02T00:02:44.508Z,24.63
2019-05-02T00:05:14.927Z,25.80
2019-05-02T00:07:43.423Z,28.20
2019-05-02T00:10:14.427Z,25.67
2019-05-02T00:12:43.671Z,27.80
2019-05-02T00:15:14.359Z,27.00
2019-05-02T00:17:42.870Z,23.97
2019-05-02T00:20:11.492Z,23.13
2019-05-02T00:22:40.136Z,24.30
2019-05-02T00:25:11.066Z,24.10
2019-05-02T00:27:38.978Z,27.73
2019-05-02T00:30:08.039Z,27.50
2019-05-02T00:32:36.728Z,25.83
2019-05-02T00:35:05.756Z,28.03
2019-05-02T00:37:34.300Z,25.23
2019-05-02T00:40:03.024Z,23.33
2019-05-02T00:42:31.731Z,25.47
2019-05-02T00:45:00.361Z,26.40
2019-05-02T00:47:51.145Z,26.47
2019-05-02T00:50:20.648Z,23.87
2019-05-02T00:52:49.357Z,24.73
2019-05-02T00:55:18.067Z,28.53
2019-05-02T00:57:50.891Z,26.50
2019-05-02T01:00:18.404Z,25.47
2019-05-02T01:02:53.221Z,29.03
2019-05-02T01:05:22.034Z,27.60
2019-05-02T01:07:50.738Z,26.80
2019-05-02T01:10:21.226Z,23.07
2019-05-02T01:12:49.605Z,25.43
2019-05-02T01:15:18.390Z,30.17
2019-05-02T01:17:47.108Z,27.83
2019-05-02T01:20:15.765Z,25.70
2019-05-02T01:22:47.119Z,30.77
2019-05-02T01:25:15.788Z,28.93
2019-05-02T01:28:03.645Z,30.20
2019-05-02T01:30:44.883Z,29.90
2019-05-02T01:33:36.744Z,27.47
2019-05-02T01:36:08.623Z,29.17
2019-05-02T01:38:43.803Z,25.13
2019-05-02T01:41:12.233Z,30.57
2019-05-02T01:43:40.902Z,29.90
2019-05-02T01:46:09.771Z,26.07
2019-05-02T01:48:40.062Z,28.40
2019-05-02T01:51:10.055Z,27.10
2019-05-02T01:53:38.944Z,24.97
2019-05-02T01:56:07.607Z,24.93
2019-05-02T01:58:36.292Z,25.77
2019-05-02T02:01:05.107Z,27.10
2019-05-02T02:03:33.854Z,23.60
2019-05-02T02:06:02.909Z,25.47
2019-05-02T02:08:34.346Z,26.07
2019-05-02T02:11:02.891Z,21.13
2019-05-02T02:13:36.525Z,23.43
2019-05-02T02:16:04.499Z,23.73
2019-05-02T02:18:35.982Z,25.90
2019-05-02T02:21:12.280Z,29.10
2019-05-02T02:23:53.112Z,22.07
2019-05-02T02:26:21.867Z,21.70
2019-05-02T02:28:50.315Z,21.93
2019-05-02T02:31:19.947Z,22.80
2019-05-02T02:33:51.768Z,24.77
2019-05-02T02:36:31.764Z,21.83
2019-05-02T02:38:54.923Z,23.23
2019-05-02T02:41:23.670Z,22.80
2019-05-02T02:44:24.002Z,24.93
2019-05-02T02:46:53.095Z,21.00
2019-05-02T02:49:24.432Z,19.63
2019-05-02T02:51:57.953Z,20.03
2019-05-02T02:54:22.724Z,22.00
2019-05-02T02:56:51.430Z,19.93
2019-05-02T02:59:26.118Z,18.03
2019-05-02T03:01:50.626Z,18.50
2019-05-02T03:04:19.316Z,18.50
2019-05-02T03:06:48.027Z,19.33
2019-05-02T03:09:20.274Z,16.97
2019-05-02T03:12:06.685Z,18.10
2019-05-02T03:14:41.110Z,15.70
2019-05-02T03:17:09.600Z,18.43
2019-05-02T03:19:38.424Z,15.13
2019-05-02T03:22:06.837Z,19.00
2019-05-02T03:24:36.670Z,17.17
2019-05-02T03:27:05.857Z,15.40
2019-05-02T03:29:41.383Z,11.93
2019-05-02T03:32:16.864Z,18.57
2019-05-02T03:34:47.945Z,13.30
2019-05-02T03:37:13.471Z,14.37
2019-05-02T03:39:40.433Z,19.00
2019-05-02T03:42:09.172Z,12.57
2019-05-02T03:44:38.605Z,15.57
2019-05-02T03:47:07.419Z,12.87
2019-05-02T03:49:41.145Z,12.60
2019-05-02T03:52:06.736Z,13.90
2019-05-02T03:54:35.664Z,15.73
2019-05-02T03:57:04.307Z,10.43
2019-05-02T03:59:38.995Z,15.07
2019-05-02T04:02:03.234Z,11.27
2019-05-02T04:04:31.795Z,14.83
2019-05-02T04:07:03.291Z,16.13
2019-05-02T04:09:38.901Z,11.93
2019-05-02T04:12:11.359Z,13.10
2019-05-02T04:14:38.589Z,13.37
2019-05-02T04:17:08.345Z,13.67
2019-05-02T04:19:37.060Z,11.47
2019-05-02T04:22:08.572Z,12.50
2019-05-02T04:24:36.589Z,16.93
2019-05-02T04:27:05.035Z,15.70
2019-05-02T04:29:34.415Z,12.30
2019-05-02T04:32:11.276Z,12.80
2019-05-02T04:34:33.536Z,12.47
2019-05-02T04:37:04.113Z,14.40
2019-05-02T04:39:32.386Z,11.70
2019-05-02T04:42:05.433Z,15.17
2019-05-02T04:44:40.920Z,10.27
2019-05-02T04:47:11.180Z,10.43
2019-05-02T04:49:35.803Z,12.13
2019-05-02T04:52:10.633Z,11.03
2019-05-02T04:54:32.885Z,11.03
2019-05-02T04:57:02.566Z,11.13
2019-05-02T04:59:33.215Z,11.60
2019-05-02T05:02:02.090Z,12.33
2019-05-02T05:04:33.121Z,10.90
2019-05-02T05:07:02.373Z,10.70
2019-05-02T05:09:31.240Z,12.80
2019-05-02T05:12:02.560Z,8.73
2019-05-02T05:14:31.425Z,10.70
2019-05-02T05:17:00.547Z,11.33
2019-05-02T05:19:32.800Z,10.60
2019-05-02T05:22:04.696Z,8.67
2019-05-02T05:24:42.192Z,12.00
2019-05-02T05:27:13.188Z,10.07
2019-05-02T05:29:38.916Z,9.63
2019-05-02T05:32:10.221Z,10.33
2019-05-02T05:34:40.845Z,8.80
2019-05-02T05:37:13.470Z,10.13
2019-05-02T05:39:43.138Z,9.97
2019-05-02T05:42:10.844Z,8.53
2019-05-02T05:44:40.124Z,11.70
2019-05-02T05:47:12.258Z,11.50
2019-05-02T05:49:39.199Z,11.50
2019-05-02T05:52:08.181Z,12.43
2019-05-02T05:54:38.382Z,10.43
2019-05-02T05:57:07.682Z,9.47
2019-05-02T05:59:38.011Z,9.80
2019-05-02T06:02:14.448Z,10.07
2019-05-02T06:04:44.699Z,10.10
2019-05-02T06:07:17.656Z,14.87
2019-05-02T06:09:57.180Z,10.17
2019-05-02T06:12:36.003Z,8.07
2019-05-02T06:15:08.788Z,8.80
2019-05-02T06:17:41.226Z,10.60
2019-05-02T06:20:16.521Z,10.00
2019-05-02T06:22:55.068Z,12.47
2019-05-02T06:25:34.603Z,8.93
2019-05-02T06:28:05.443Z,10.27
2019-05-02T06:30:35.964Z,10.07
2019-05-02T06:33:12.080Z,10.60
2019-05-02T06:35:43.584Z,8.10
2019-05-02T06:38:21.672Z,11.67
2019-05-02T06:40:52.761Z,9.53
2019-05-02T06:43:25.364Z,11.90
2019-05-02T06:46:15.193Z,10.10
2019-05-02T06:48:32.772Z,7.67
2019-05-02T06:51:19.674Z,9.37
2019-05-02T06:53:50.411Z,9.03
2019-05-02T06:56:30.020Z,10.03
2019-05-02T06:59:04.069Z,9.50
2019-05-02T07:01:37.738Z,6.70
2019-05-02T07:04:09.899Z,8.13
2019-05-02T07:06:58.485Z,9.73
2019-05-02T07:09:39.551Z,8.03
2019-05-02T07:12:02.073Z,9.17
2019-05-02T07:14:34.051Z,7.50
2019-05-02T07:17:38.377Z,8.40
2019-05-02T07:20:11.856Z,7.73
2019-05-02T07:22:47.645Z,5.53
2019-05-02T07:25:24.313Z,8.07
2019-05-02T07:27:58.866Z,9.03
2019-05-02T07:30:35.146Z,6.37
2019-05-02T07:33:04.971Z,9.07
2019-05-02T07:35:36.674Z,6.37
2019-05-02T07:38:10.731Z,6.13
2019-05-02T07:40:48.113Z,7.27
2019-05-02T07:43:22.160Z,6.27
2019-05-02T07:45:54.081Z,7.13
2019-05-02T07:48:25.219Z,4.93
2019-05-02T07:50:57.505Z,7.13
2019-05-02T07:53:28.460Z,7.50
2019-05-02T07:56:01.799Z,5.30
2019-05-02T07:58:38.478Z,8.53
2019-05-02T08:01:08.156Z,9.27
2019-05-02T08:03:43.271Z,7.30
2019-05-02T08:06:16.995Z,8.33
2019-05-02T08:09:01.605Z,6.50
2019-05-02T08:11:37.149Z,7.37
2019-05-02T08:14:15.873Z,6.07
2019-05-02T08:16:50.254Z,9.83
2019-05-02T08:19:30.972Z,7.93
2019-05-02T08:22:14.826Z,8.10
2019-05-02T08:24:49.511Z,6.93
2019-05-02T08:27:42.340Z,5.73
2019-05-02T08:30:40.607Z,8.77
2019-05-02T08:33:16.591Z,10.07
2019-05-02T08:35:50.830Z,8.87
2019-05-02T08:38:22.014Z,6.47
2019-05-02T08:40:55.784Z,4.53
2019-05-02T08:43:27.282Z,6.13
2019-05-02T08:45:58.753Z,7.07
2019-05-02T08:48:30.171Z,10.07
2019-05-02T08:51:05.758Z,7.50
2019-05-02T08:53:37.137Z,5.33
2019-05-02T08:56:08.323Z,5.37
2019-05-02T08:58:49.861Z,7.33
2019-05-02T09:01:19.596Z,5.10
2019-05-02T09:03:56.528Z,7.90
2019-05-02T09:06:35.670Z,5.40
2019-05-02T09:09:08.923Z,4.50
2019-05-02T09:11:57.570Z,4.80
2019-05-02T09:14:23.140Z,5.07
2019-05-02T09:17:06.049Z,6.33
2019-05-02T09:19:34.529Z,6.37
2019-05-02T09:22:07.496Z,4.17
2019-05-02T09:24:43.066Z,6.53
2019-05-02T09:27:18.021Z,4.30
2019-05-02T09:29:52.939Z,6.87
2019-05-02T09:32:26.571Z,8.50
2019-05-02T09:35:02.148Z,5.57
2019-05-02T09:37:33.980Z,4.30
2019-05-02T09:40:06.758Z,7.20
2019-05-02T09:42:42.766Z,7.60
2019-05-02T09:45:22.740Z,5.10
2019-05-02T09:48:05.152Z,7.57
2019-05-02T09:50:39.148Z,7.53
2019-05-02T09:53:13.127Z,7.33
2019-05-02T09:55:50.252Z,7.03
2019-05-02T09:58:24.006Z,7.63
2019-05-02T10:01:22.386Z,5.83
2019-05-02T10:04:00.011Z,8.70
2019-05-02T10:06:33.943Z,5.90
2019-05-02T10:09:09.236Z,5.33
2019-05-02T10:11:49.462Z,7.50
2019-05-02T10:14:22.623Z,6.00
2019-05-02T10:16:57.596Z,7.63
2019-05-02T10:19:32.694Z,7.33
2019-05-02T10:22:05.569Z,4.40
2019-05-02T10:24:38.459Z,4.77
2019-05-02T10:27:10.095Z,6.23
2019-05-02T10:29:45.594Z,8.33
2019-05-02T10:32:22.550Z,6.17
2019-05-02T10:34:56.906Z,5.97
2019-05-02T10:37:32.349Z,8.03
2019-05-02T10:40:13.418Z,9.33
2019-05-02T10:42:42.974Z,7.23
2019-05-02T10:45:20.032Z,8.03
2019-05-02T10:48:02.785Z,5.37
2019-05-02T10:50:44.364Z,7.80
2019-05-02T10:53:15.820Z,5.67
2019-05-02T10:55:52.358Z,6.00
2019-05-02T10:58:31.290Z,6.70
2019-05-02T11:00:59.799Z,7.53
2019-05-02T11:03:46.184Z,7.27
2019-05-02T11:06:12.618Z,4.53
2019-05-02T11:08:46.010Z,6.20
2019-05-02T11:11:21.961Z,5.47
2019-05-02T11:14:11.988Z,6.17
2019-05-02T11:17:09.052Z,6.00
2019-05-02T11:19:43.801Z,6.60
2019-05-02T11:22:18.720Z,5.07
2019-05-02T11:24:54.845Z,5.43
2019-05-02T11:27:25.785Z,4.57
2019-05-02T11:29:59.596Z,4.57
2019-05-02T11:32:32.673Z,4.93
2019-05-02T11:35:05.492Z,3.80
2019-05-02T11:37:42.989Z,5.30
2019-05-02T11:40:13.974Z,6.57
2019-05-02T11:42:49.794Z,5.23
2019-05-02T11:45:22.749Z,6.67
2019-05-02T11:48:01.682Z,5.13
2019-05-02T11:50:35.511Z,6.30
2019-05-02T11:53:22.308Z,4.23
2019-05-02T11:55:44.637Z,5.60
2019-05-02T11:58:16.703Z,4.93
2019-05-02T12:00:56.847Z,3.60
2019-05-02T12:03:42.197Z,5.47
2019-05-02T12:06:19.519Z,4.43
2019-05-02T12:08:52.584Z,4.20
2019-05-02T12:11:23.943Z,5.87
2019-05-02T12:13:57.042Z,5.83
2019-05-02T12:16:28.767Z,5.10
2019-05-02T12:19:09.438Z,4.13
2019-05-02T12:21:35.343Z,4.40
2019-05-02T12:24:08.952Z,5.07
2019-05-02T12:26:46.413Z,6.03
2019-05-02T12:29:21.830Z,5.43
2019-05-02T12:32:15.695Z,4.47
2019-05-02T12:34:52.692Z,5.83
2019-05-02T12:37:26.977Z,4.10
2019-05-02T12:39:55.934Z,3.70
2019-05-02T12:42:34.059Z,3.80
2019-05-02T12:45:12.834Z,3.77
2019-05-02T12:47:49.607Z,4.60
2019-05-02T12:50:26.203Z,6.40
2019-05-02T12:52:57.563Z,4.80
2019-05-02T12:55:28.770Z,4.73
2019-05-02T12:58:03.546Z,7.60
2019-05-02T13:00:35.498Z,4.53
2019-05-02T13:03:14.263Z,6.30
2019-05-02T13:05:52.134Z,4.43
2019-05-02T13:08:27.628Z,6.40
2019-05-02T13:11:28.849Z,4.43
2019-05-02T13:14:04.014Z,4.33
2019-05-02T13:16:34.467Z,6.40
2019-05-02T13:19:07.449Z,5.00
2019-05-02T13:21:58.200Z,4.33
2019-05-02T13:24:38.631Z,5.27
2019-05-02T13:27:13.869Z,3.87
2019-05-02T13:29:45.463Z,4.87
2019-05-02T13:32:52.749Z,6.03
2019-05-02T13:35:36.492Z,5.43
2019-05-02T13:38:09.722Z,6.90
2019-05-02T13:40:47.320Z,5.00
2019-05-02T13:43:27.851Z,3.77
2019-05-02T13:46:14.178Z,5.00
2019-05-02T13:48:48.045Z,7.80
2019-05-02T13:51:23.981Z,5.27
2019-05-02T13:54:02.450Z,4.40
2019-05-02T13:56:52.984Z,1.87
2019-05-02T13:59:29.566Z,2.80
2019-05-02T14:02:03.441Z,2.60
2019-05-02T14:04:35.173Z,2.20
2019-05-02T14:07:07.623Z,3.07
2019-05-02T14:09:52.699Z,4.27
2019-05-02T14:12:53.401Z,3.00
2019-05-02T14:15:29.879Z,2.70
2019-05-02T14:18:02.564Z,2.93
2019-05-02T14:20:37.346Z,2.87
2019-05-02T14:23:16.739Z,5.53
2019-05-02T14:25:48.739Z,5.13
2019-05-02T14:28:26.902Z,4.57
2019-05-02T14:30:58.267Z,6.47
2019-05-02T14:33:38.060Z,3.60
2019-05-02T14:36:15.250Z,4.03
2019-05-02T14:38:52.416Z,4.53
2019-05-02T14:41:38.884Z,5.37
2019-05-02T14:44:17.940Z,6.07
2019-05-02T14:46:47.690Z,6.07
2019-05-02T14:49:23.935Z,5.90
2019-05-02T14:51:52.505Z,4.97
2019-05-02T14:54:32.276Z,3.83
2019-05-02T14:57:27.253Z,5.83
2019-05-02T15:00:03.254Z,4.47
2019-05-02T15:02:49.246Z,4.37
2019-05-02T15:05:28.359Z,4.67
2019-05-02T15:07:56.709Z,6.00
2019-05-02T15:10:29.401Z,3.10
2019-05-02T15:13:04.410Z,4.43
2019-05-02T15:15:43.474Z,6.43
2019-05-02T15:18:13.465Z,3.40
2019-05-02T15:20:54.879Z,6.10
2019-05-02T15:23:29.391Z,4.57
2019-05-02T15:26:02.631Z,5.47
2019-05-02T15:28:39.758Z,7.33
2019-05-02T15:31:34.312Z,3.93
2019-05-02T15:34:47.885Z,4.80
2019-05-02T15:37:25.676Z,5.83
2019-05-02T15:42:32.289Z,3.23
2019-05-02T15:45:09.090Z,4.80
2019-05-02T15:47:45.392Z,5.90
2019-05-02T15:50:22.051Z,3.27
2019-05-02T15:53:03.121Z,4.47
2019-05-02T15:55:39.728Z,6.07
2019-05-02T15:58:23.753Z,6.30
2019-05-02T16:01:25.909Z,5.07
2019-05-02T16:04:02.061Z,6.87
2019-05-02T16:06:33.627Z,8.57
2019-05-02T16:09:02.307Z,4.30
2019-05-02T16:11:40.861Z,7.50
2019-05-02T16:14:12.788Z,6.27
2019-05-02T16:16:45.276Z,4.70
2019-05-02T16:19:24.679Z,5.70
2019-05-02T16:22:11.487Z,5.90
2019-05-02T16:24:49.009Z,5.00
2019-05-02T16:27:21.956Z,5.93
2019-05-02T16:29:52.179Z,6.63
2019-05-02T16:32:40.035Z,9.13
2019-05-02T16:35:17.229Z,8.23
2019-05-02T16:37:46.823Z,7.97
2019-05-02T16:40:30.002Z,7.07
2019-05-02T16:42:56.300Z,6.33
2019-05-02T16:45:34.816Z,5.07
2019-05-02T16:48:12.841Z,5.87
2019-05-02T16:50:46.293Z,6.03
2019-05-02T16:53:22.561Z,5.43
2019-05-02T16:55:53.544Z,6.27
2019-05-02T16:58:33.683Z,5.10
2019-05-02T17:01:08.037Z,4.97
2019-05-02T17:03:42.371Z,5.37
2019-05-02T17:06:16.975Z,6.67
2019-05-02T17:08:58.480Z,4.83
2019-05-02T17:11:35.834Z,6.33
2019-05-02T17:14:11.647Z,5.43
2019-05-02T17:16:39.664Z,7.00
2019-05-02T17:19:12.300Z,7.17
2019-05-02T17:21:54.009Z,6.60
2019-05-02T17:24:22.678Z,6.40
2019-05-02T17:26:52.096Z,7.30
2019-05-02T17:29:24.184Z,8.63
2019-05-02T17:32:02.192Z,7.30
2019-05-02T17:34:34.999Z,6.27
2019-05-02T17:37:11.179Z,5.63
2019-05-02T17:39:46.064Z,6.30
2019-05-02T17:42:16.965Z,5.53
2019-05-02T17:44:59.327Z,6.37
2019-05-02T17:47:31.000Z,4.40
2019-05-02T17:50:07.240Z,7.20
2019-05-02T17:52:43.995Z,4.33
2019-05-02T17:55:16.318Z,7.47
2019-05-02T17:57:56.569Z,7.87
2019-05-02T18:00:33.586Z,5.20
2019-05-02T18:03:06.689Z,6.87
2019-05-02T18:05:44.397Z,8.23
2019-05-02T18:08:16.440Z,7.93
2019-05-02T18:10:50.685Z,7.47
2019-05-02T18:13:33.697Z,5.50
2019-05-02T18:16:07.747Z,7.43
2019-05-02T18:18:43.684Z,6.67
2019-05-02T18:21:17.712Z,4.73
2019-05-02T18:23:47.162Z,7.83
2019-05-02T18:26:23.485Z,8.97
2019-05-02T18:29:02.974Z,7.00
2019-05-02T18:31:34.789Z,4.33
2019-05-02T18:34:05.721Z,7.40
2019-05-02T18:36:37.275Z,8.83
2019-05-02T18:39:14.727Z,6.23
2019-05-02T18:41:49.607Z,7.93
2019-05-02T18:44:22.422Z,5.73
2019-05-02T18:46:57.887Z,7.27
2019-05-02T18:49:31.809Z,6.40
2019-05-02T18:52:07.583Z,7.10
2019-05-02T18:54:47.366Z,7.03
2019-05-02T18:57:25.997Z,7.23
2019-05-02T18:59:56.515Z,5.63
2019-05-02T19:02:32.769Z,7.07
2019-05-02T19:05:06.125Z,3.43
2019-05-02T19:07:42.630Z,6.30
2019-05-02T19:10:22.855Z,7.70
2019-05-02T19:13:00.390Z,4.73
2019-05-02T19:15:39.625Z,7.17
2019-05-02T19:18:18.068Z,6.20
2019-05-02T19:21:12.614Z,8.17
2019-05-02T19:23:44.811Z,6.47
2019-05-02T19:26:22.148Z,7.87
2019-05-02T19:29:16.968Z,6.27
2019-05-02T19:31:55.852Z,5.17
2019-05-02T19:34:29.244Z,9.53
2019-05-02T19:37:08.491Z,5.77
2019-05-02T19:39:48.640Z,7.43
2019-05-02T19:42:26.198Z,5.63
2019-05-02T19:45:11.194Z,5.47
2019-05-02T19:47:37.606Z,4.00
2019-05-02T19:50:17.195Z,7.43
2019-05-02T19:53:00.911Z,7.40
2019-05-02T19:55:24.178Z,3.93
2019-05-02T19:57:52.305Z,6.03
2019-05-02T20:00:21.562Z,4.97
2019-05-02T20:02:52.163Z,7.00
2019-05-02T20:05:25.543Z,4.90
2019-05-02T20:07:53.318Z,3.50
2019-05-02T20:10:24.174Z,8.87
2019-05-02T20:12:53.590Z,3.33
2019-05-02T20:15:27.002Z,5.97
2019-05-02T20:18:00.660Z,8.43
2019-05-02T20:20:49.596Z,6.37
2019-05-02T20:23:28.297Z,7.67
2019-05-02T20:25:52.183Z,5.97
2019-05-02T20:28:21.821Z,7.23
2019-05-02T20:30:52.515Z,6.57
2019-05-02T20:33:22.212Z,8.43
2019-05-02T20:35:52.898Z,4.50
2019-05-02T20:38:22.147Z,5.43
2019-05-02T20:40:52.276Z,6.73
2019-05-02T20:43:22.470Z,6.93
2019-05-02T20:45:52.742Z,5.63
2019-05-02T20:48:22.705Z,6.73
2019-05-02T20:50:52.489Z,7.37
2019-05-02T20:53:30.732Z,5.47
2019-05-02T20:55:52.381Z,7.13
2019-05-02T20:58:21.970Z,8.23
2019-05-02T21:01:05.044Z,6.03
2019-05-02T21:03:21.412Z,4.27
2019-05-02T21:06:09.279Z,6.43
2019-05-02T21:08:48.749Z,6.87
2019-05-02T21:11:17.383Z,6.13
2019-05-02T21:13:45.918Z,6.33
2019-05-02T21:16:14.733Z,7.37
2019-05-02T21:18:43.441Z,6.27
2019-05-02T21:21:12.585Z,6.43
2019-05-02T21:23:47.026Z,7.77
2019-05-02T21:26:11.958Z,6.17
2019-05-02T21:28:42.791Z,8.60
2019-05-02T21:31:13.087Z,6.93
2019-05-02T21:33:42.752Z,7.27
2019-05-02T21:36:12.141Z,6.83
2019-05-02T21:38:42.760Z,7.17
2019-05-02T21:41:11.930Z,7.93
2019-05-02T21:43:42.305Z,11.90
2019-05-02T21:46:10.355Z,9.43
2019-05-02T21:48:38.905Z,5.47
2019-05-02T21:51:14.040Z,6.97
2019-05-02T21:53:58.584Z,8.17
2019-05-02T21:56:49.580Z,7.40
2019-05-02T21:59:18.090Z,8.40
2019-05-02T22:01:52.559Z,8.13
2019-05-02T22:04:22.437Z,7.27
2019-05-02T22:06:52.159Z,7.43
2019-05-02T22:09:23.124Z,7.87
2019-05-02T22:11:52.027Z,9.73
2019-05-02T22:14:22.485Z,7.43
2019-05-02T22:16:52.886Z,6.90
2019-05-02T22:19:21.417Z,5.60
2019-05-02T22:21:52.263Z,6.37
2019-05-02T22:24:20.562Z,7.77
2019-05-02T22:26:49.192Z,8.60
2019-05-02T22:29:17.871Z,9.40
2019-05-02T22:31:46.593Z,6.30
2019-05-02T22:34:15.047Z,9.57
2019-05-02T22:36:43.321Z,9.27
2019-05-02T22:39:35.363Z,6.80
2019-05-02T22:42:04.594Z,8.03
2019-05-02T22:44:33.550Z,8.10
2019-05-02T22:47:02.056Z,6.97
2019-05-02T22:49:31.817Z,10.30
2019-05-02T22:52:01.560Z,8.13
2019-05-02T22:54:31.536Z,10.53
2019-05-02T22:57:02.451Z,9.20
2019-05-02T22:59:31.698Z,11.00
2019-05-02T23:02:01.981Z,8.40
2019-05-02T23:04:32.530Z,7.50
2019-05-02T23:07:02.368Z,7.77
2019-05-02T23:09:31.085Z,9.00
2019-05-02T23:11:59.738Z,7.73
2019-05-02T23:14:28.424Z,10.97
2019-05-02T23:16:57.151Z,6.00
2019-05-02T23:19:25.818Z,9.07
2019-05-02T23:21:54.486Z,11.70
2019-05-02T23:25:02.763Z,6.83
2019-05-02T23:27:56.594Z,8.87
2019-05-02T23:30:25.061Z,10.40
2019-05-02T23:32:53.726Z,7.07
2019-05-02T23:35:22.416Z,9.63
2019-05-02T23:37:52.956Z,7.83
2019-05-02T23:40:21.830Z,8.50
2019-05-02T23:42:52.281Z,8.27
2019-05-02T23:45:22.540Z,8.90
2019-05-02T23:47:52.737Z,9.93
2019-05-02T23:50:22.835Z,6.60
2019-05-02T23:52:55.068Z,8.83
2019-05-02T23:55:23.481Z,10.67
2019-05-02T23:57:52.407Z,7.33
